createdAt,value
2018-06-04T00:00:31.087Z,42.53
2018-06-04T00:02:59.420Z,38.90
2018-06-04T00:05:27.828Z,47.03
2018-06-04T00:07:56.313Z,44.83
2018-06-04T00:10:24.684Z,53.90
2018-06-04T00:12:53.985Z,41.40
2018-06-04T00:15:22.345Z,48.10
2018-06-04T00:17:50.723Z,44.77
2018-06-04T00:20:19.098Z,49.30
2018-06-04T00:22:47.433Z,43.27
2018-06-04T00:25:15.766Z,45.37
2018-06-04T00:27:44.206Z,41.50
2018-06-04T00:30:13.479Z,46.97
2018-06-04T00:32:42.857Z,45.70
2018-06-04T00:35:12.072Z,46.83
2018-06-04T00:37:40.448Z,43.60
2018-06-04T00:40:09.746Z,44.47
2018-06-04T00:42:38.125Z,55.13
2018-06-04T00:45:07.429Z,46.60
2018-06-04T00:47:36.584Z,46.87
2018-06-04T00:50:05.975Z,44.10
2018-06-04T00:52:34.308Z,38.83
2018-06-04T00:55:04.541Z,46.20
2018-06-04T00:57:33.876Z,44.50
2018-06-04T01:00:03.138Z,43.10
2018-06-04T01:02:32.348Z,46.30
2018-06-04T01:05:01.430Z,51.73
2018-06-04T01:07:29.774Z,56.07
2018-06-04T01:09:58.185Z,46.67
2018-06-04T01:12:27.476Z,48.80
2018-06-04T01:14:56.777Z,50.67
2018-06-04T01:17:25.969Z,44.13
2018-06-04T01:19:55.330Z,40.53
2018-06-04T01:22:24.537Z,44.80
2018-06-04T01:24:53.869Z,45.53
2018-06-04T01:27:23.379Z,49.27
2018-06-04T01:29:52.631Z,52.40
2018-06-04T01:32:21.857Z,55.27
2018-06-04T01:34:50.187Z,53.80
2018-06-04T01:37:19.468Z,51.67
2018-06-04T01:39:48.896Z,49.80
2018-06-04T01:42:17.301Z,55.17
2018-06-04T01:44:46.632Z,62.13
2018-06-04T01:47:16.041Z,48.20
2018-06-04T01:49:45.336Z,52.90
2018-06-04T01:52:14.571Z,53.20
2018-06-04T01:54:43.856Z,48.07
2018-06-04T01:57:12.257Z,46.80
2018-06-04T01:59:40.648Z,50.60
2018-06-04T02:02:09.014Z,52.10
2018-06-04T02:04:38.230Z,42.33
2018-06-04T02:07:07.532Z,44.60
2018-06-04T02:09:35.909Z,44.43
2018-06-04T02:12:04.283Z,43.40
2018-06-04T02:14:32.608Z,39.63
2018-06-04T02:17:01.945Z,37.20
2018-06-04T02:19:31.213Z,42.20
2018-06-04T02:22:00.544Z,44.77
2018-06-04T02:24:29.707Z,50.37
2018-06-04T02:26:58.036Z,41.77
2018-06-04T02:29:26.461Z,51.67
2018-06-04T02:31:54.845Z,54.17
2018-06-04T02:34:23.181Z,65.30
2018-06-04T02:36:51.559Z,60.47
2018-06-04T02:39:20.780Z,57.87
2018-06-04T02:41:49.220Z,51.73
2018-06-04T02:44:17.536Z,49.07
2018-06-04T02:46:45.902Z,52.53
2018-06-04T02:49:14.243Z,49.20
2018-06-04T02:51:42.618Z,52.60
2018-06-04T02:54:12.003Z,55.40
2018-06-04T02:56:40.336Z,51.90
2018-06-04T02:59:09.708Z,53.77
2018-06-04T03:01:38.137Z,53.20
2018-06-04T03:04:07.152Z,58.30
2018-06-04T03:06:35.497Z,50.63
2018-06-04T03:09:04.618Z,50.47
2018-06-04T03:11:32.973Z,43.07
2018-06-04T03:14:01.357Z,53.73
2018-06-04T03:16:29.749Z,48.40
2018-06-04T03:18:58.084Z,51.00
2018-06-04T03:21:27.336Z,41.20
2018-06-04T03:23:56.564Z,47.10
2018-06-04T03:26:24.898Z,53.53
2018-06-04T03:28:54.109Z,49.30
2018-06-04T03:31:22.450Z,46.50
2018-06-04T03:33:50.789Z,47.90
2018-06-04T03:36:19.177Z,53.77
2018-06-04T03:38:47.600Z,46.57
2018-06-04T03:41:16.688Z,48.33
2018-06-04T03:43:45.075Z,50.03
2018-06-04T03:46:13.809Z,55.00
2018-06-04T03:48:43.160Z,49.17
2018-06-04T03:51:11.537Z,48.53
2018-06-04T03:53:41.611Z,46.23
2018-06-04T03:56:10.878Z,48.73
2018-06-04T03:58:40.148Z,47.70
2018-06-04T04:01:09.409Z,52.37
2018-06-04T04:03:38.612Z,53.30
2018-06-04T04:06:06.934Z,60.70
2018-06-04T04:08:36.277Z,54.90
2018-06-04T04:11:05.515Z,49.50
2018-06-04T04:13:34.774Z,49.73
2018-06-04T04:16:04.048Z,69.30
2018-06-04T04:18:33.272Z,49.63
2018-06-04T04:21:02.618Z,53.67
2018-06-04T04:23:30.989Z,45.77
2018-06-04T04:25:59.423Z,51.60
2018-06-04T04:28:28.833Z,54.80
2018-06-04T04:30:58.165Z,61.07
2018-06-04T04:33:27.434Z,58.10
2018-06-04T04:35:56.837Z,58.70
2018-06-04T04:38:26.113Z,53.67
2018-06-04T04:40:55.610Z,52.70
2018-06-04T04:43:24.939Z,55.67
2018-06-04T04:45:53.297Z,50.30
2018-06-04T04:48:21.901Z,57.03
2018-06-04T04:50:50.283Z,57.67
2018-06-04T04:53:18.649Z,54.23
2018-06-04T04:55:46.977Z,61.73
2018-06-04T04:58:16.198Z,53.20
2018-06-04T05:00:44.666Z,53.40
2018-06-04T05:03:14.026Z,52.30
2018-06-04T05:05:42.389Z,49.23
2018-06-04T05:08:11.660Z,55.27
2018-06-04T05:10:41.050Z,50.70
2018-06-04T05:13:09.520Z,52.17
2018-06-04T05:15:37.872Z,45.77
2018-06-04T05:18:06.204Z,48.70
2018-06-04T05:20:34.556Z,52.00
2018-06-04T05:23:03.009Z,49.23
2018-06-04T05:25:31.390Z,42.30
2018-06-04T05:27:59.734Z,48.13
2018-06-04T05:30:28.082Z,45.60
2018-06-04T05:32:56.414Z,46.97
2018-06-04T05:35:24.810Z,43.20
2018-06-04T05:37:53.141Z,43.20
2018-06-04T05:40:21.552Z,35.90
2018-06-04T05:42:49.961Z,39.80
2018-06-04T05:45:18.282Z,36.03
2018-06-04T05:47:46.608Z,41.20
2018-06-04T05:50:15.001Z,35.90
2018-06-04T05:52:43.364Z,34.80
2018-06-04T05:55:11.682Z,38.10
2018-06-04T05:57:40.020Z,36.50
2018-06-04T06:00:08.348Z,36.20
2018-06-04T06:02:36.688Z,33.53
2018-06-04T06:05:05.043Z,30.80
2018-06-04T06:07:33.374Z,37.70
2018-06-04T06:10:02.637Z,32.57
2018-06-04T06:12:30.961Z,37.47
2018-06-04T06:14:59.298Z,35.90
2018-06-04T06:17:27.896Z,30.47
2018-06-04T06:19:56.272Z,24.10
2018-06-04T06:22:25.481Z,31.50
2018-06-04T06:24:53.889Z,27.93
2018-06-04T06:27:23.198Z,23.53
2018-06-04T06:29:51.642Z,22.50
2018-06-04T06:32:19.970Z,22.53
2018-06-04T06:34:48.402Z,21.00
2018-06-04T06:37:17.017Z,22.27
2018-06-04T06:39:45.356Z,19.00
2018-06-04T06:42:13.911Z,17.70
2018-06-04T06:44:42.617Z,24.40
2018-06-04T06:47:11.232Z,19.70
2018-06-04T06:49:39.709Z,25.30
2018-06-04T06:52:08.269Z,25.07
2018-06-04T06:54:36.802Z,24.00
2018-06-04T06:57:05.153Z,23.43
2018-06-04T06:59:41.675Z,22.23
2018-06-04T07:02:11.293Z,25.73
2018-06-04T07:04:40.043Z,23.13
2018-06-04T07:07:08.474Z,24.80
2018-06-04T07:09:36.886Z,25.50
2018-06-04T07:12:06.352Z,28.07
2018-06-04T07:14:36.101Z,20.30
2018-06-04T07:17:05.462Z,18.30
2018-06-04T07:19:34.893Z,25.03
2018-06-04T07:22:04.216Z,22.20
2018-06-04T07:24:32.708Z,28.60
2018-06-04T07:27:01.285Z,24.10
2018-06-04T07:29:30.715Z,19.17
2018-06-04T07:31:59.209Z,15.30
2018-06-04T07:34:28.565Z,20.37
2018-06-04T07:36:57.914Z,16.47
2018-06-04T07:39:27.297Z,17.93
2018-06-04T07:41:55.763Z,17.17
2018-06-04T07:44:24.301Z,18.13
2018-06-04T07:46:52.781Z,17.30
2018-06-04T07:49:21.222Z,20.87
2018-06-04T07:51:50.650Z,18.97
2018-06-04T07:54:19.121Z,21.20
2018-06-04T07:56:48.521Z,23.63
2018-06-04T07:59:17.027Z,20.67
2018-06-04T08:01:45.509Z,18.37
2018-06-04T08:04:14.017Z,14.27
2018-06-04T08:06:42.405Z,19.10
2018-06-04T08:09:10.829Z,18.70
2018-06-04T08:11:40.104Z,19.83
2018-06-04T08:14:10.250Z,17.33
2018-06-04T08:16:39.587Z,22.70
2018-06-04T08:19:07.983Z,20.80
2018-06-04T08:21:37.336Z,21.13
2018-06-04T08:24:06.222Z,24.23
2018-06-04T08:26:34.796Z,27.50
2018-06-04T08:29:03.382Z,15.63
2018-06-04T08:31:31.822Z,19.07
2018-06-04T08:34:00.988Z,17.90
2018-06-04T08:36:30.690Z,24.83
2018-06-04T08:39:00.169Z,21.53
2018-06-04T08:41:28.701Z,16.10
2018-06-04T08:43:58.047Z,19.87
2018-06-04T08:46:27.192Z,22.87
2018-06-04T08:48:56.514Z,21.10
2018-06-04T08:51:25.818Z,22.07
2018-06-04T08:53:55.194Z,20.47
2018-06-04T08:56:24.477Z,19.57
2018-06-04T08:58:53.870Z,18.77
2018-06-04T09:01:22.326Z,17.43
2018-06-04T09:03:50.667Z,17.37
2018-06-04T09:06:19.385Z,18.80
2018-06-04T09:08:47.869Z,20.47
2018-06-04T09:11:16.580Z,20.03
2018-06-04T09:13:44.996Z,21.83
2018-06-04T09:16:13.418Z,18.50
2018-06-04T09:18:41.861Z,19.83
2018-06-04T09:21:10.206Z,18.37
2018-06-04T09:23:38.621Z,13.20
2018-06-04T09:26:07.170Z,18.27
2018-06-04T09:28:35.508Z,16.63
2018-06-04T09:31:04.742Z,18.07
2018-06-04T09:33:33.098Z,16.23
2018-06-04T09:36:01.430Z,16.30
2018-06-04T09:38:29.871Z,12.67
2018-06-04T09:40:59.125Z,13.80
2018-06-04T09:43:27.449Z,14.83
2018-06-04T09:45:55.811Z,15.47
2018-06-04T09:48:24.166Z,11.47
2018-06-04T09:50:52.593Z,13.57
2018-06-04T09:53:20.943Z,13.53
2018-06-04T09:55:49.692Z,13.07
2018-06-04T09:58:18.129Z,11.80
2018-06-04T10:00:46.506Z,25.83
2018-06-04T10:03:14.889Z,17.00
2018-06-04T10:05:43.320Z,17.13
2018-06-04T10:08:11.774Z,13.93
2018-06-04T10:10:42.725Z,10.43
2018-06-04T10:13:13.915Z,13.73
2018-06-04T10:15:46.089Z,10.77
2018-06-04T10:18:15.312Z,15.57
2018-06-04T10:20:43.747Z,11.23
2018-06-04T10:23:12.070Z,10.43
2018-06-04T10:25:40.441Z,11.83
2018-06-04T10:28:08.908Z,12.53
2018-06-04T10:30:38.273Z,12.60
2018-06-04T10:33:07.746Z,11.00
2018-06-04T10:35:37.266Z,11.07
2018-06-04T10:38:08.183Z,10.10
2018-06-04T10:40:38.758Z,9.80
2018-06-04T10:43:08.903Z,11.93
2018-06-04T10:45:37.846Z,11.13
2018-06-04T10:48:07.134Z,9.60
2018-06-04T10:50:37.005Z,10.07
2018-06-04T10:53:06.795Z,14.40
2018-06-04T10:55:36.264Z,13.07
2018-06-04T10:58:06.458Z,13.93
2018-06-04T11:00:34.797Z,12.90
2018-06-04T11:03:04.141Z,8.80
2018-06-04T11:05:33.552Z,7.27
2018-06-04T11:08:04.857Z,11.50
2018-06-04T11:10:34.061Z,8.40
2018-06-04T11:13:02.402Z,8.33
2018-06-04T11:15:32.172Z,10.20
2018-06-04T11:18:05.206Z,10.40
2018-06-04T11:20:34.550Z,12.43
2018-06-04T11:23:02.949Z,8.27
2018-06-04T11:25:33.141Z,8.90
2018-06-04T11:28:01.624Z,8.40
2018-06-04T11:30:29.992Z,8.63
2018-06-04T11:32:58.551Z,11.87
2018-06-04T11:35:26.921Z,9.67
2018-06-04T11:37:55.330Z,8.00
2018-06-04T11:40:24.712Z,9.90
2018-06-04T11:42:53.039Z,9.07
2018-06-04T11:45:21.419Z,9.70
2018-06-04T11:48:02.384Z,10.17
2018-06-04T11:50:33.933Z,11.87
2018-06-04T11:53:05.297Z,10.53
2018-06-04T11:55:33.779Z,9.87
2018-06-04T11:58:03.932Z,14.50
2018-06-04T12:00:38.436Z,9.67
2018-06-04T12:03:11.273Z,11.87
2018-06-04T12:05:39.709Z,13.63
2018-06-04T12:08:08.084Z,10.10
2018-06-04T12:10:36.481Z,9.13
2018-06-04T12:13:04.885Z,8.27
2018-06-04T12:15:33.265Z,8.63
2018-06-04T12:18:01.678Z,9.10
2018-06-04T12:20:30.048Z,9.07
2018-06-04T12:22:58.444Z,10.43
2018-06-04T12:25:27.031Z,8.93
2018-06-04T12:27:56.592Z,10.93
2018-06-04T12:30:25.844Z,10.33
2018-06-04T12:32:55.076Z,7.20
2018-06-04T12:35:24.301Z,6.90
2018-06-04T12:37:53.690Z,6.40
2018-06-04T12:40:22.946Z,7.90
2018-06-04T12:42:51.332Z,7.70
2018-06-04T12:45:19.686Z,7.30
2018-06-04T12:47:48.961Z,9.93
2018-06-04T12:50:17.285Z,9.90
2018-06-04T12:52:45.620Z,8.70
2018-06-04T12:55:13.944Z,12.20
2018-06-04T12:57:42.290Z,12.50
2018-06-04T13:00:10.665Z,8.87
2018-06-04T13:02:38.980Z,10.87
2018-06-04T13:05:07.389Z,9.77
2018-06-04T13:07:35.798Z,10.27
2018-06-04T13:10:04.138Z,12.17
2018-06-04T13:12:32.525Z,11.07
2018-06-04T13:15:01.238Z,8.90
2018-06-04T13:17:29.557Z,8.60
2018-06-04T13:19:57.884Z,9.00
2018-06-04T13:22:26.213Z,10.37
2018-06-04T13:24:54.558Z,10.77
2018-06-04T13:27:22.917Z,10.90
2018-06-04T13:29:51.311Z,16.43
2018-06-04T13:32:19.625Z,9.10
2018-06-04T13:34:54.710Z,9.87
2018-06-04T13:37:23.114Z,10.00
2018-06-04T13:39:51.440Z,10.00
2018-06-04T13:42:19.914Z,10.90
2018-06-04T13:44:48.363Z,9.63
2018-06-04T13:47:16.725Z,11.03
2018-06-04T13:49:45.153Z,6.73
2018-06-04T13:52:13.493Z,10.67
2018-06-04T13:54:41.822Z,10.43
2018-06-04T13:57:10.142Z,9.43
2018-06-04T13:59:40.342Z,14.13
2018-06-04T14:02:08.696Z,12.10
2018-06-04T14:04:37.031Z,8.20
2018-06-04T14:07:05.355Z,7.53
2018-06-04T14:09:33.821Z,6.97
2018-06-04T14:12:02.149Z,8.30
2018-06-04T14:14:30.468Z,8.90
2018-06-04T14:16:58.800Z,8.10
2018-06-04T14:19:27.186Z,15.60
2018-06-04T14:21:55.520Z,9.10
2018-06-04T14:24:23.860Z,11.73
2018-06-04T14:26:52.188Z,8.23
2018-06-04T14:29:21.626Z,7.40
2018-06-04T14:31:50.810Z,8.77
2018-06-04T14:34:19.120Z,7.27
2018-06-04T14:36:47.441Z,9.57
2018-06-04T14:39:16.643Z,7.50
2018-06-04T14:41:45.829Z,8.83
2018-06-04T14:44:15.223Z,8.57
2018-06-04T14:46:44.456Z,6.27
2018-06-04T14:49:13.652Z,7.33
2018-06-04T14:51:43.019Z,9.83
2018-06-04T14:54:12.350Z,7.10
2018-06-04T14:56:41.713Z,9.50
2018-06-04T14:59:10.945Z,7.13
2018-06-04T15:01:40.194Z,7.87
2018-06-04T15:04:09.405Z,6.97
2018-06-04T15:06:38.740Z,7.00
2018-06-04T15:09:08.518Z,7.50
2018-06-04T15:11:37.721Z,10.30
2018-06-04T15:14:06.184Z,11.33
2018-06-04T15:16:35.541Z,7.30
2018-06-04T15:19:03.861Z,8.67
2018-06-04T15:21:33.192Z,7.00
2018-06-04T15:24:02.465Z,11.90
2018-06-04T15:26:31.751Z,7.27
2018-06-04T15:29:00.068Z,9.50
2018-06-04T15:31:28.424Z,7.93
2018-06-04T15:33:57.634Z,9.23
2018-06-04T15:36:25.997Z,8.00
2018-06-04T15:38:54.324Z,6.40
2018-06-04T15:41:22.656Z,7.90
2018-06-04T15:43:51.101Z,6.20
2018-06-04T15:46:19.416Z,8.13
2018-06-04T15:48:47.768Z,6.83
2018-06-04T15:51:16.104Z,9.80
2018-06-04T15:53:44.437Z,6.87
2018-06-04T15:56:12.757Z,7.83
2018-06-04T15:58:42.262Z,8.17
2018-06-04T16:01:10.577Z,7.90
2018-06-04T16:03:38.953Z,7.83
2018-06-04T16:06:07.268Z,10.73
2018-06-04T16:08:35.621Z,9.27
2018-06-04T16:11:03.956Z,7.20
2018-06-04T16:13:32.269Z,7.67
2018-06-04T16:16:00.597Z,9.13
2018-06-04T16:18:28.977Z,14.33
2018-06-04T16:20:57.384Z,10.17
2018-06-04T16:23:25.749Z,7.90
2018-06-04T16:25:54.181Z,9.40
2018-06-04T16:28:22.494Z,8.13
2018-06-04T16:30:50.927Z,10.53
2018-06-04T16:33:19.229Z,8.93
2018-06-04T16:35:47.580Z,8.90
2018-06-04T16:38:15.886Z,9.57
2018-06-04T16:40:44.351Z,9.87
2018-06-04T16:43:12.773Z,8.40
2018-06-04T16:45:41.092Z,7.40
2018-06-04T16:48:09.395Z,11.60
2018-06-04T16:50:37.712Z,10.23
2018-06-04T16:53:06.091Z,10.07
2018-06-04T16:55:34.397Z,8.73
2018-06-04T16:58:02.712Z,9.70
2018-06-04T17:00:53.346Z,9.97
2018-06-04T17:03:22.771Z,9.37
2018-06-04T17:05:52.168Z,9.97
2018-06-04T17:08:21.484Z,10.13
2018-06-04T17:10:50.753Z,8.70
2018-06-04T17:13:19.058Z,8.90
2018-06-04T17:15:47.454Z,10.30
2018-06-04T17:18:15.818Z,8.47
2018-06-04T17:20:44.142Z,11.40
2018-06-04T17:23:13.495Z,11.70
2018-06-04T17:25:42.752Z,9.77
2018-06-04T17:28:12.098Z,9.63
2018-06-04T17:30:41.350Z,11.70
2018-06-04T17:33:10.555Z,8.70
2018-06-04T17:35:39.941Z,10.80
2018-06-04T17:38:09.199Z,10.20
2018-06-04T17:40:37.578Z,9.70
2018-06-04T17:43:05.929Z,9.93
2018-06-04T17:45:34.246Z,10.60
2018-06-04T17:48:02.622Z,9.60
2018-06-04T17:50:31.009Z,11.03
2018-06-04T17:52:59.361Z,11.23
2018-06-04T17:55:28.682Z,12.20
2018-06-04T17:57:57.560Z,12.87
2018-06-04T18:00:25.932Z,10.27
2018-06-04T18:02:55.161Z,10.60
2018-06-04T18:05:24.636Z,15.43
2018-06-04T18:07:53.766Z,10.90
2018-06-04T18:10:22.576Z,14.07
2018-06-04T18:12:50.928Z,12.57
2018-06-04T18:15:20.161Z,10.10
2018-06-04T18:17:49.639Z,12.70
2018-06-04T18:20:19.547Z,9.70
2018-06-04T18:22:48.754Z,13.17
2018-06-04T18:25:17.073Z,11.55
2018-06-04T18:27:46.555Z,11.03
2018-06-04T18:30:14.888Z,12.17
2018-06-04T18:32:44.265Z,11.63
2018-06-04T18:35:12.699Z,13.10
2018-06-04T18:37:41.083Z,10.30
2018-06-04T18:40:09.683Z,14.23
2018-06-04T18:42:38.070Z,10.20
2018-06-04T18:45:06.399Z,11.77
2018-06-04T18:47:35.633Z,10.50
2018-06-04T18:50:04.017Z,10.53
2018-06-04T18:52:32.373Z,14.07
2018-06-04T18:55:00.773Z,9.40
2018-06-04T18:57:29.136Z,9.60
2018-06-04T18:59:57.557Z,10.00
2018-06-04T19:02:26.001Z,9.23
2018-06-04T19:04:55.322Z,10.23
2018-06-04T19:07:24.554Z,8.83
2018-06-04T19:09:53.280Z,10.20
2018-06-04T19:12:21.669Z,6.97
2018-06-04T19:14:50.151Z,8.63
2018-06-04T19:17:18.522Z,8.63
2018-06-04T19:19:46.873Z,11.00
2018-06-04T19:22:15.297Z,7.80
2018-06-04T19:24:44.773Z,7.77
2018-06-04T19:27:14.186Z,6.40
2018-06-04T19:29:43.600Z,6.87
2018-06-04T19:32:11.994Z,8.10
2018-06-04T19:34:40.361Z,7.20
2018-06-04T19:37:08.838Z,8.30
2018-06-04T19:39:37.326Z,7.63
2018-06-04T19:42:05.789Z,7.57
2018-06-04T19:44:34.805Z,8.10
2018-06-04T19:47:03.239Z,7.13
2018-06-04T19:49:31.604Z,9.27
2018-06-04T19:51:59.921Z,8.30
2018-06-04T19:54:28.334Z,7.73
2018-06-04T19:56:56.694Z,8.50
2018-06-04T19:59:25.087Z,7.63
2018-06-04T20:01:53.459Z,11.00
2018-06-04T20:04:21.842Z,8.07
2018-06-04T20:06:50.232Z,11.37
2018-06-04T20:09:18.547Z,9.73
2018-06-04T20:11:46.853Z,7.53
2018-06-04T20:14:16.105Z,8.87
2018-06-04T20:16:44.469Z,7.07
2018-06-04T20:19:12.782Z,8.77
2018-06-04T20:21:41.167Z,10.30
2018-06-04T20:24:09.518Z,8.27
2018-06-04T20:26:38.796Z,8.93
2018-06-04T20:29:08.029Z,7.90
2018-06-04T20:31:36.373Z,8.20
2018-06-04T20:34:04.839Z,10.53
2018-06-04T20:36:33.176Z,11.03
2018-06-04T20:39:01.520Z,10.57
2018-06-04T20:41:30.862Z,9.60
2018-06-04T20:43:59.203Z,10.80
2018-06-04T20:46:27.573Z,9.27
2018-06-04T20:48:55.876Z,10.13
2018-06-04T20:51:24.198Z,11.93
2018-06-04T20:53:52.531Z,14.13
2018-06-04T20:56:20.862Z,11.30
2018-06-04T20:58:49.169Z,9.23
2018-06-04T21:01:17.628Z,9.83
2018-06-04T21:03:45.941Z,11.27
2018-06-04T21:06:15.329Z,11.20
2018-06-04T21:08:44.565Z,10.90
2018-06-04T21:11:12.886Z,12.00
2018-06-04T21:13:41.289Z,10.10
2018-06-04T21:16:09.644Z,11.20
2018-06-04T21:18:37.988Z,13.57
2018-06-04T21:21:06.321Z,11.87
2018-06-04T21:23:34.636Z,11.27
2018-06-04T21:26:04.008Z,14.07
2018-06-04T21:28:33.289Z,13.03
2018-06-04T21:31:02.633Z,16.43
2018-06-04T21:33:31.076Z,14.77
2018-06-04T21:35:59.396Z,15.13
2018-06-04T21:38:28.717Z,14.03
2018-06-04T21:40:57.065Z,17.97
2018-06-04T21:43:25.412Z,19.20
2018-06-04T21:45:53.760Z,18.60
2018-06-04T21:48:23.089Z,15.70
2018-06-04T21:50:51.491Z,16.40
2018-06-04T21:53:19.834Z,22.53
2018-06-04T21:55:48.200Z,21.43
2018-06-04T21:58:16.533Z,20.87
2018-06-04T22:00:44.924Z,19.83
2018-06-04T22:03:13.494Z,19.77
2018-06-04T22:05:41.817Z,21.70
2018-06-04T22:08:10.142Z,18.13
2018-06-04T22:10:39.500Z,19.87
2018-06-04T22:13:08.006Z,19.50
2018-06-04T22:15:36.328Z,23.50
2018-06-04T22:18:04.865Z,23.00
2018-06-04T22:20:33.237Z,18.47
2018-06-04T22:23:01.659Z,23.33
2018-06-04T22:25:30.880Z,23.70
2018-06-04T22:27:59.184Z,24.33
2018-06-04T22:30:27.715Z,22.47
2018-06-04T22:32:56.305Z,23.93
2018-06-04T22:35:25.874Z,22.00
2018-06-04T22:37:54.279Z,21.77
2018-06-04T22:40:22.624Z,25.10
2018-06-04T22:42:51.884Z,27.50
2018-06-04T22:45:21.121Z,24.03
2018-06-04T22:47:50.374Z,24.17
2018-06-04T22:50:18.700Z,22.93
2018-06-04T22:52:48.200Z,24.83
2018-06-04T22:55:16.540Z,24.03
2018-06-04T22:57:44.856Z,18.70
2018-06-04T23:00:33.061Z,19.97
2018-06-04T23:03:01.869Z,21.07
2018-06-04T23:05:30.277Z,23.20
2018-06-04T23:07:58.604Z,21.97
2018-06-04T23:10:26.965Z,28.53
2018-06-04T23:12:55.284Z,24.90
2018-06-04T23:15:23.648Z,28.83
2018-06-04T23:17:52.023Z,27.47
2018-06-04T23:20:20.349Z,21.87
2018-06-04T23:22:48.683Z,26.60
2018-06-04T23:25:17.044Z,28.23
2018-06-04T23:27:45.388Z,21.70
2018-06-04T23:30:13.719Z,21.53
2018-06-04T23:32:42.045Z,22.43
2018-06-04T23:35:10.376Z,24.97
2018-06-04T23:37:39.591Z,29.10
2018-06-04T23:40:07.951Z,26.33
2018-06-04T23:42:37.299Z,24.57
2018-06-04T23:45:05.632Z,19.27
2018-06-04T23:47:34.060Z,22.60
2018-06-04T23:50:02.504Z,23.97
2018-06-04T23:52:30.827Z,23.90
2018-06-04T23:54:59.206Z,23.87
2018-06-04T23:57:27.532Z,27.67
2018-06-04T23:59:56.877Z,24.17
